Time;durP1;ratioP1;P1;durP2;ratioP2;P2;SDS_P1;SDS_P2;PMS_P1;PMS_P2;Temp;Humidity;BMP_temperature;BMP_pressure;BME280_temperature;BME280_humidity;BME280_pressure;Samples;Min_cycle;Max_cycle;Signal;HPM_P1;HPM_P2
2023/07/11 00:01:48;;;;;;;10.00;6.50;;;;;;;;;;110151;1280;22590;-78
2023/07/11 00:04:15;;;;;;;10.20;6.60;;;;;;;;;;110152;1280;22770;-77
2023/07/11 00:06:44;;;;;;;10.60;6.90;;;;;;;;;;110020;1280;22123;-77
2023/07/11 00:09:13;;;;;;;10.90;6.50;;;;;;;;;;110199;1262;22128;-77
2023/07/11 00:11:41;;;;;;;11.80;6.80;;;;;;;;;;110236;1279;22358;-77
2023/07/11 00:14:11;;;;;;;9.80;5.90;;;;;;;;;;110250;1279;22887;-77
2023/07/11 00:16:40;;;;;;;10.40;6.40;;;;;;;;;;110271;1279;22714;-77
2023/07/11 00:19:08;;;;;;;12.10;6.80;;;;;;;;;;110230;1259;22386;-76
2023/07/11 00:21:37;;;;;;;13.70;7.30;;;;;;;;;;110138;1265;22139;-76
2023/07/11 00:24:07;;;;;;;12.50;6.30;;;;;;;;;;110069;1280;22322;-77
2023/07/11 00:26:35;;;;;;;11.20;6.60;;;;;;;;;;110070;1280;22122;-76
2023/07/11 00:29:16;;;;;;;10.60;6.40;;;;;;;;;;110175;1257;22159;-77
2023/07/11 00:31:44;;;;;;;11.60;6.40;;;;;;;;;;110279;1279;22100;-76
2023/07/11 00:34:12;;;;;;;9.40;5.80;;;;;;;;;;110268;1279;22889;-76
2023/07/11 00:36:41;;;;;;;10.00;6.10;;;;;;;;;;110164;1279;22120;-76
2023/07/11 00:39:12;;;;;;;15.40;6.60;;;;;;;;;;110150;1257;22098;-77
2023/07/11 00:41:40;;;;;;;11.30;6.40;;;;;;;;;;110145;1280;22129;-76
2023/07/11 00:44:16;;;;;;;11.40;6.60;;;;;;;;;;110064;1280;22145;-76
2023/07/11 00:46:44;;;;;;;11.00;6.40;;;;;;;;;;110157;1280;22124;-76
2023/07/11 00:49:15;;;;;;;11.80;6.40;;;;;;;;;;110149;1257;22157;-77
2023/07/11 00:58:56;;;;;;;11.80;7.10;;;;;;;;;;104423;1285;544863;-84
2023/07/11 01:01:24;;;;;;;10.70;6.70;;;;;;;;;;106248;1287;26488;-77
2023/07/11 01:03:52;;;;;;;11.90;7.30;;;;;;;;;;106085;1287;23921;-79
2023/07/11 01:06:21;;;;;;;12.30;7.20;;;;;;;;;;106265;1287;22532;-76
2023/07/11 01:08:48;;;;;;;11.10;6.90;;;;;;;;;;106329;1269;24186;-84
2023/07/11 01:11:15;;;;;;;11.10;6.50;;;;;;;;;;106233;1287;22537;-83
2023/07/11 01:13:42;;;;;;;12.00;6.70;;;;;;;;;;107702;1284;3018856;-77
2023/07/11 01:16:09;;;;;;;11.40;7.10;;;;;;;;;;109948;1284;22858;-77
2023/07/11 01:18:36;;;;;;;11.00;7.10;;;;;;;;;;109919;1266;22150;-78
2023/07/11 01:21:04;;;;;;;10.60;6.90;;;;;;;;;;109895;1284;22822;-78
2023/07/11 01:23:32;;;;;;;9.20;6.40;;;;;;;;;;109954;1284;22108;-77
2023/07/11 01:26:04;;;;;;;13.80;6.90;;;;;;;;;;109931;1284;22208;-78
2023/07/11 01:28:31;;;;;;;13.10;6.70;;;;;;;;;;109903;1263;22135;-77
2023/07/11 01:30:57;;;;;;;10.80;6.70;;;;;;;;;;109933;1284;22334;-78
2023/07/11 01:33:24;;;;;;;10.60;7.10;;;;;;;;;;110349;1277;22097;-77
2023/07/11 01:35:52;;;;;;;10.80;7.30;;;;;;;;;;110243;1278;22153;-78
2023/07/11 01:38:22;;;;;;;10.90;6.90;;;;;;;;;;110352;1278;22397;-78
2023/07/11 01:40:49;;;;;;;12.40;7.70;;;;;;;;;;110476;1259;22116;-78
2023/07/11 01:43:17;;;;;;;11.60;7.40;;;;;;;;;;110338;1278;22823;-78
2023/07/11 01:45:44;;;;;;;12.20;7.40;;;;;;;;;;110330;1278;22132;-78
2023/07/11 01:48:11;;;;;;;12.10;7.00;;;;;;;;;;110262;1278;22887;-78
2023/07/11 01:50:38;;;;;;;12.80;5.90;;;;;;;;;;110493;1259;22258;-77
2023/07/11 01:53:05;;;;;;;9.90;6.40;;;;;;;;;;110289;1278;22097;-77
2023/07/11 01:55:32;;;;;;;12.10;6.70;;;;;;;;;;110252;1278;22104;-77
2023/07/11 01:57:59;;;;;;;11.10;6.40;;;;;;;;;;110254;1278;22069;-77
2023/07/11 02:00:26;;;;;;;11.20;6.60;;;;;;;;;;110361;1259;22113;-77
2023/07/11 02:02:54;;;;;;;11.20;6.70;;;;;;;;;;110256;1278;22988;-77
2023/07/11 02:05:21;;;;;;;11.90;6.50;;;;;;;;;;110398;1272;22160;-77
2023/07/11 02:07:49;;;;;;;10.20;6.60;;;;;;;;;;110173;1278;22077;-78
2023/07/11 02:10:16;;;;;;;10.90;6.30;;;;;;;;;;110424;1259;22101;-78
2023/07/11 02:12:42;;;;;;;10.80;6.50;;;;;;;;;;110394;1278;22135;-77
2023/07/11 02:15:11;;;;;;;11.10;6.40;;;;;;;;;;110238;1278;22110;-77
2023/07/11 02:17:38;;;;;;;10.30;6.70;;;;;;;;;;110363;1278;22389;-77
2023/07/11 02:20:06;;;;;;;11.00;6.30;;;;;;;;;;110885;1256;22127;-77
2023/07/11 02:22:32;;;;;;;10.80;6.40;;;;;;;;;;110662;1273;21824;-77
2023/07/11 02:24:59;;;;;;;10.50;6.30;;;;;;;;;;110670;1273;22101;-77
2023/07/11 02:27:26;;;;;;;10.00;6.20;;;;;;;;;;110721;1273;22121;-77
2023/07/11 02:29:52;;;;;;;10.80;6.00;;;;;;;;;;110826;1253;22788;-77
2023/07/11 02:32:19;;;;;;;11.30;5.80;;;;;;;;;;110650;1273;22103;-78
2023/07/11 02:34:46;;;;;;;8.60;5.50;;;;;;;;;;110698;1273;22090;-77
2023/07/11 02:37:13;;;;;;;10.90;5.90;;;;;;;;;;110724;1273;21987;-77
2023/07/11 02:39:39;;;;;;;10.60;5.90;;;;;;;;;;110572;1251;22677;-77
2023/07/11 02:42:06;;;;;;;10.70;6.00;;;;;;;;;;110657;1273;22018;-77
2023/07/11 02:44:33;;;;;;;10.20;5.90;;;;;;;;;;110657;1273;22538;-77
2023/07/11 02:47:00;;;;;;;10.10;6.30;;;;;;;;;;110653;1273;22091;-77
2023/07/11 02:49:26;;;;;;;9.20;5.80;;;;;;;;;;110713;1273;22132;-77
2023/07/11 02:51:53;;;;;;;9.20;5.90;;;;;;;;;;110922;1257;22138;-77
2023/07/11 02:54:20;;;;;;;10.00;5.60;;;;;;;;;;110614;1274;22143;-77
2023/07/11 02:56:46;;;;;;;11.20;5.90;;;;;;;;;;110546;1274;22397;-77
2023/07/11 02:59:13;;;;;;;9.90;6.00;;;;;;;;;;110640;1274;22072;-77
2023/07/11 03:01:43;;;;;;;9.40;5.70;;;;;;;;;;111111;1255;22143;-77
2023/07/11 03:04:09;;;;;;;9.40;5.80;;;;;;;;;;110588;1274;22570;-77
2023/07/11 03:06:36;;;;;;;10.80;6.60;;;;;;;;;;110572;1274;22101;-77
2023/07/11 03:09:03;;;;;;;9.60;5.80;;;;;;;;;;110603;1274;22108;-77
2023/07/11 03:11:30;;;;;;;10.60;5.90;;;;;;;;;;110927;1256;22139;-77
2023/07/11 03:13:56;;;;;;;12.10;5.70;;;;;;;;;;110595;1274;22206;-77
2023/07/11 03:16:23;;;;;;;8.90;5.60;;;;;;;;;;110662;1274;22779;-77
2023/07/11 03:18:50;;;;;;;9.10;5.30;;;;;;;;;;110590;1274;22244;-77
2023/07/11 03:21:16;;;;;;;8.90;5.60;;;;;;;;;;110704;1256;22121;-78
2023/07/11 03:23:43;;;;;;;12.70;5.90;;;;;;;;;;110651;1274;22348;-77
2023/07/11 03:26:10;;;;;;;9.10;5.50;;;;;;;;;;110632;1274;22193;-77
2023/07/11 03:28:36;;;;;;;8.70;5.50;;;;;;;;;;110596;1274;22851;-77
2023/07/11 03:31:03;;;;;;;10.30;5.60;;;;;;;;;;110750;1254;22036;-77
2023/07/11 03:33:30;;;;;;;10.90;5.30;;;;;;;;;;110587;1274;22772;-77
2023/07/11 03:35:56;;;;;;;8.70;4.70;;;;;;;;;;110689;1274;22160;-78
2023/07/11 03:38:23;;;;;;;11.10;4.70;;;;;;;;;;110615;1274;22727;-78
2023/07/11 03:40:50;;;;;;;7.70;4.60;;;;;;;;;;110598;1251;23146;-77
2023/07/11 03:43:17;;;;;;;8.80;4.20;;;;;;;;;;110571;1274;22111;-77
2023/07/11 03:45:45;;;;;;;8.80;4.90;;;;;;;;;;110590;1274;22094;-77
2023/07/11 03:48:12;;;;;;;9.30;5.10;;;;;;;;;;110610;1274;22310;-77
2023/07/11 03:50:39;;;;;;;9.00;4.70;;;;;;;;;;110635;1274;22320;-77
2023/07/11 03:53:06;;;;;;;7.90;4.60;;;;;;;;;;110708;1256;22129;-77
2023/07/11 03:55:33;;;;;;;9.50;5.00;;;;;;;;;;110651;1274;22110;-77
2023/07/11 03:58:00;;;;;;;8.60;4.20;;;;;;;;;;110665;1274;22326;-77
2023/07/11 04:00:26;;;;;;;8.70;4.60;;;;;;;;;;110651;1275;22877;-78
2023/07/11 04:02:53;;;;;;;8.20;4.40;;;;;;;;;;111038;1253;22098;-77
2023/07/11 04:05:21;;;;;;;9.30;4.70;;;;;;;;;;110673;1275;22085;-77
2023/07/11 04:07:47;;;;;;;8.30;4.10;;;;;;;;;;110638;1275;22065;-80
2023/07/11 04:10:14;;;;;;;8.80;4.40;;;;;;;;;;110629;1274;22110;-77
2023/07/11 04:12:41;;;;;;;10.30;4.70;;;;;;;;;;110952;1257;22972;-77
2023/07/11 04:15:08;;;;;;;7.60;4.40;;;;;;;;;;110708;1274;22102;-77
2023/07/11 04:17:34;;;;;;;10.10;4.40;;;;;;;;;;110609;1274;22291;-78
2023/07/11 04:20:02;;;;;;;8.90;4.40;;;;;;;;;;110654;1275;22093;-77
2023/07/11 04:22:29;;;;;;;7.50;4.30;;;;;;;;;;110621;1258;22117;-77
2023/07/11 04:24:56;;;;;;;9.20;4.40;;;;;;;;;;110651;1275;22296;-77
2023/07/11 04:27:24;;;;;;;8.90;4.20;;;;;;;;;;110645;1275;22558;-77
2023/07/11 04:29:53;;;;;;;9.10;4.10;;;;;;;;;;110508;1275;22118;-78
2023/07/11 04:32:19;;;;;;;8.20;4.20;;;;;;;;;;110550;1258;22125;-78
2023/07/11 04:34:46;;;;;;;9.50;3.90;;;;;;;;;;110666;1275;22092;-77
2023/07/11 04:37:13;;;;;;;7.30;3.90;;;;;;;;;;110701;1274;22082;-77
2023/07/11 04:40:11;;;;;;;;;;;;;;;;;;;;;
2023/07/11 04:43:09;;;;;;;9.00;4.40;;;;;;;;;;110142;1259;22304;-77
2023/07/11 04:45:36;;;;;;;9.50;4.70;;;;;;;;;;110092;1280;22153;-78
2023/07/11 04:48:03;;;;;;;8.00;4.40;;;;;;;;;;110140;1280;22188;-77
2023/07/11 04:50:30;;;;;;;9.70;4.30;;;;;;;;;;110225;1280;22487;-77
2023/07/11 04:52:57;;;;;;;8.60;4.10;;;;;;;;;;110169;1261;22867;-78
2023/07/11 04:55:23;;;;;;;8.10;4.30;;;;;;;;;;110063;1263;22857;-78
2023/07/11 04:57:50;;;;;;;8.30;4.20;;;;;;;;;;110070;1280;22096;-77
2023/07/11 05:00:17;;;;;;;9.30;4.40;;;;;;;;;;110162;1280;22161;-77
2023/07/11 05:02:44;;;;;;;8.30;4.40;;;;;;;;;;110124;1256;22916;-78
2023/07/11 05:05:11;;;;;;;9.70;4.70;;;;;;;;;;110140;1280;22859;-77
2023/07/11 05:07:38;;;;;;;11.00;4.10;;;;;;;;;;110157;1280;22416;-78
2023/07/11 05:10:05;;;;;;;9.40;4.30;;;;;;;;;;110170;1280;22148;-77
2023/07/11 05:12:32;;;;;;;9.30;4.60;;;;;;;;;;110082;1280;22361;-78
2023/07/11 05:14:59;;;;;;;7.50;4.10;;;;;;;;;;110137;1262;22948;-77
2023/07/11 05:17:26;;;;;;;7.70;3.40;;;;;;;;;;110091;1280;22125;-77
2023/07/11 05:19:52;;;;;;;7.40;3.60;;;;;;;;;;110429;1276;22114;-78
2023/07/11 05:22:19;;;;;;;7.40;3.70;;;;;;;;;;110291;1276;22113;-78
2023/07/11 05:24:49;;;;;;;7.80;4.30;;;;;;;;;;110854;1257;22117;-78
2023/07/11 05:27:15;;;;;;;9.10;4.50;;;;;;;;;;110649;1276;22102;-77
2023/07/11 05:29:42;;;;;;;8.90;4.60;;;;;;;;;;110493;1276;22134;-77
2023/07/11 05:32:12;;;;;;;8.70;3.70;;;;;;;;;;110618;1275;21973;-78
2023/07/11 05:34:38;;;;;;;9.30;4.30;;;;;;;;;;110897;1257;22107;-78
2023/07/11 05:37:05;;;;;;;10.80;3.60;;;;;;;;;;110651;1276;22111;-77
2023/07/11 05:39:32;;;;;;;7.50;3.20;;;;;;;;;;110624;1276;22077;-78
2023/07/11 05:41:59;;;;;;;7.40;2.90;;;;;;;;;;110485;1276;22215;-78
2023/07/11 05:44:26;;;;;;;7.80;3.10;;;;;;;;;;110787;1256;22106;-77
2023/07/11 05:46:53;;;;;;;6.90;2.80;;;;;;;;;;110630;1276;22281;-78
2023/07/11 05:49:19;;;;;;;6.30;2.70;;;;;;;;;;110593;1276;22904;-78
2023/07/11 05:51:46;;;;;;;7.80;3.10;;;;;;;;;;110447;1276;22923;-78
2023/07/11 05:54:13;;;;;;;8.00;2.90;;;;;;;;;;110649;1257;22867;-77
2023/07/11 05:56:40;;;;;;;8.20;2.90;;;;;;;;;;110570;1276;22976;-78
2023/07/11 05:59:07;;;;;;;8.30;3.10;;;;;;;;;;110442;1276;22097;-78
2023/07/11 06:01:34;;;;;;;6.90;2.70;;;;;;;;;;110362;1276;22090;-77
2023/07/11 06:04:03;;;;;;;6.60;3.00;;;;;;;;;;110553;1253;22229;-78
2023/07/11 06:06:30;;;;;;;6.20;2.90;;;;;;;;;;110580;1276;23092;-78
2023/07/11 06:08:57;;;;;;;8.50;2.90;;;;;;;;;;110585;1276;22105;-78
2023/07/11 06:11:24;;;;;;;8.40;3.00;;;;;;;;;;110643;1275;22092;-79
2023/07/11 06:13:50;;;;;;;7.50;3.10;;;;;;;;;;110599;1253;23108;-79
2023/07/11 06:16:18;;;;;;;6.20;3.00;;;;;;;;;;110315;1276;22156;-79
2023/07/11 06:18:46;;;;;;;7.50;3.30;;;;;;;;;;110577;1276;22191;-78
2023/07/11 06:21:13;;;;;;;8.60;3.40;;;;;;;;;;110311;1276;22075;-78
2023/07/11 06:23:40;;;;;;;6.00;2.70;;;;;;;;;;110584;1276;22213;-78
2023/07/11 06:26:08;;;;;;;7.70;3.20;;;;;;;;;;110765;1258;22093;-78
2023/07/11 06:28:35;;;;;;;8.50;3.30;;;;;;;;;;110461;1276;22088;-78
2023/07/11 06:31:02;;;;;;;6.20;2.80;;;;;;;;;;110460;1276;23042;-79
2023/07/11 06:33:29;;;;;;;5.80;2.90;;;;;;;;;;110457;1276;22877;-78
2023/07/11 06:35:56;;;;;;;9.50;3.20;;;;;;;;;;110430;1259;22126;-79
2023/07/11 06:38:22;;;;;;;6.70;3.00;;;;;;;;;;110445;1276;22165;-78
2023/07/11 06:40:54;;;;;;;8.00;3.10;;;;;;;;;;110447;1276;22100;-79
2023/07/11 06:43:21;;;;;;;7.10;3.10;;;;;;;;;;110577;1276;22098;-78
2023/07/11 06:45:48;;;;;;;7.10;2.90;;;;;;;;;;110442;1258;22099;-80
2023/07/11 06:48:16;;;;;;;6.00;2.80;;;;;;;;;;110456;1276;22718;-79
2023/07/11 06:50:49;;;;;;;6.90;3.30;;;;;;;;;;110459;1276;22094;-78
2023/07/11 06:53:16;;;;;;;7.30;3.10;;;;;;;;;;110392;1275;22094;-79
2023/07/11 06:55:50;;;;;;;7.60;3.10;;;;;;;;;;110581;1256;22203;-79
2023/07/11 06:58:18;;;;;;;6.80;2.80;;;;;;;;;;110463;1277;22197;-79
2023/07/11 07:00:56;;;;;;;6.80;3.40;;;;;;;;;;110313;1275;22100;-78
2023/07/11 07:03:25;;;;;;;6.30;3.10;;;;;;;;;;110323;1277;22313;-78
2023/07/11 07:05:57;;;;;;;7.90;3.50;;;;;;;;;;110682;1255;22819;-79
2023/07/11 07:08:26;;;;;;;8.20;3.40;;;;;;;;;;110457;1277;22080;-78
2023/07/11 07:10:54;;;;;;;8.20;3.60;;;;;;;;;;110357;1277;22629;-78
2023/07/11 07:13:22;;;;;;;7.00;3.10;;;;;;;;;;110438;1277;22195;-78
2023/07/11 07:15:51;;;;;;;7.00;3.30;;;;;;;;;;110534;1258;22685;-79
2023/07/11 07:18:18;;;;;;;7.60;3.20;;;;;;;;;;110326;1277;22097;-78
2023/07/11 07:20:47;;;;;;;6.20;3.00;;;;;;;;;;110480;1277;22105;-78
2023/07/11 07:23:15;;;;;;;7.40;3.60;;;;;;;;;;110359;1277;22087;-78
2023/07/11 07:25:49;;;;;;;8.00;3.50;;;;;;;;;;110322;1259;22113;-78
2023/07/11 07:28:16;;;;;;;8.50;3.60;;;;;;;;;;110268;1277;22059;-79
2023/07/11 07:30:45;;;;;;;8.80;3.20;;;;;;;;;;110306;1277;22123;-79
2023/07/11 07:33:12;;;;;;;7.30;3.30;;;;;;;;;;110252;1277;22172;-78
2023/07/11 07:35:41;;;;;;;7.50;3.10;;;;;;;;;;110375;1253;22905;-79
2023/07/11 07:38:08;;;;;;;8.50;3.70;;;;;;;;;;110465;1277;22810;-78
2023/07/11 07:40:36;;;;;;;8.50;3.80;;;;;;;;;;110398;1277;22867;-79
2023/07/11 07:43:03;;;;;;;9.00;3.50;;;;;;;;;;110446;1277;22105;-79
2023/07/11 07:45:33;;;;;;;7.30;3.30;;;;;;;;;;110365;1273;23143;-79
2023/07/11 07:48:01;;;;;;;7.00;3.30;;;;;;;;;;110449;1259;22876;-79
2023/07/11 07:50:32;;;;;;;7.10;3.10;;;;;;;;;;110341;1277;22451;-79
2023/07/11 07:53:00;;;;;;;7.30;3.60;;;;;;;;;;110304;1278;22113;-78
2023/07/11 07:55:35;;;;;;;8.10;3.20;;;;;;;;;;110319;1278;22198;-79
2023/07/11 07:58:04;;;;;;;8.60;3.30;;;;;;;;;;110584;1259;22110;-77
2023/07/11 08:00:34;;;;;;;8.20;3.40;;;;;;;;;;110440;1278;22858;-78
2023/07/11 08:03:06;;;;;;;6.80;3.30;;;;;;;;;;110321;1271;22134;-78
2023/07/11 08:05:37;;;;;;;6.90;3.50;;;;;;;;;;110316;1278;22091;-78
2023/07/11 08:08:05;;;;;;;8.10;3.30;;;;;;;;;;110707;1259;21731;-77
2023/07/11 08:10:34;;;;;;;6.70;3.40;;;;;;;;;;110400;1278;22103;-76
2023/07/11 08:13:04;;;;;;;7.30;3.20;;;;;;;;;;110283;1278;22883;-77
2023/07/11 08:15:34;;;;;;;10.30;3.80;;;;;;;;;;110268;1278;22280;-79
2023/07/11 08:18:04;;;;;;;7.60;3.40;;;;;;;;;;110631;1260;22741;-79
2023/07/11 08:20:34;;;;;;;7.20;3.20;;;;;;;;;;110319;1278;22099;-79
2023/07/11 08:23:03;;;;;;;6.70;3.30;;;;;;;;;;110429;1278;22166;-79
2023/07/11 08:25:36;;;;;;;8.50;3.20;;;;;;;;;;110314;1278;22006;-79
2023/07/11 08:28:05;;;;;;;7.10;3.00;;;;;;;;;;110321;1260;22165;-79
2023/07/11 08:30:37;;;;;;;7.60;3.10;;;;;;;;;;110426;1278;22107;-78
2023/07/11 08:33:09;;;;;;;7.30;3.20;;;;;;;;;;110317;1278;21659;-78
2023/07/11 08:35:39;;;;;;;7.50;3.20;;;;;;;;;;110311;1278;22114;-78
2023/07/11 08:38:11;;;;;;;6.70;2.80;;;;;;;;;;110523;1260;22082;-78
2023/07/11 08:40:44;;;;;;;6.70;2.90;;;;;;;;;;110315;1278;22089;-78
2023/07/11 08:43:19;;;;;;;7.90;2.90;;;;;;;;;;110427;1278;22177;-78
2023/07/11 08:45:55;;;;;;;6.30;2.60;;;;;;;;;;110298;1278;22085;-78
2023/07/11 08:48:37;;;;;;;4.90;2.50;;;;;;;;;;110630;1268;22791;-78
2023/07/11 09:02:01;;;;;;;5.70;2.30;;;;;;;;;;104076;1292;545062;-78
2023/07/11 09:04:32;;;;;;;7.60;2.70;;;;;;;;;;106204;1285;22516;-83
2023/07/11 09:07:16;;;;;;;5.80;2.80;;;;;;;;;;106204;1285;24346;-80
2023/07/11 09:09:46;;;;;;;6.50;2.80;;;;;;;;;;106090;1285;22543;-79
2023/07/11 09:12:31;;;;;;;6.00;2.50;;;;;;;;;;106015;1285;23254;-83
2023/07/11 09:15:09;;;;;;;8.70;3.00;;;;;;;;;;102286;1284;5403362;-83
2023/07/11 09:17:49;;;;;;;6.10;2.80;;;;;;;;;;106447;1284;22540;-79
2023/07/11 09:20:25;;;;;;;6.70;2.70;;;;;;;;;;106305;1284;24225;-81
2023/07/11 09:23:13;;;;;;;6.90;2.70;;;;;;;;;;106360;1267;22655;-79
2023/07/11 09:25:43;;;;;;;5.70;2.50;;;;;;;;;;106351;1283;22583;-78
2023/07/11 09:28:24;;;;;;;6.30;2.60;;;;;;;;;;106536;1283;25278;-82
2023/07/11 09:31:00;;;;;;;15.70;5.20;;;;;;;;;;106390;1266;22513;-79
2023/07/11 09:33:29;;;;;;;13.00;3.40;;;;;;;;;;106318;1264;22547;-80
2023/07/11 09:35:59;;;;;;;5.80;2.10;;;;;;;;;;106416;1280;22579;-83
2023/07/11 09:38:30;;;;;;;6.40;2.10;;;;;;;;;;106854;1279;24193;-78
2023/07/11 09:41:02;;;;;;;6.20;2.00;;;;;;;;;;106836;1279;24350;-86
2023/07/11 09:43:29;;;;;;;5.40;2.30;;;;;;;;;;106821;1260;22775;-81
2023/07/11 09:46:01;;;;;;;6.20;2.30;;;;;;;;;;106600;1278;22608;-79
2023/07/11 09:48:36;;;;;;;5.10;2.30;;;;;;;;;;106450;1257;22540;-81
2023/07/11 09:51:03;;;;;;;5.60;2.40;;;;;;;;;;106698;1278;25347;-80
2023/07/11 09:53:33;;;;;;;6.40;2.20;;;;;;;;;;106549;1260;22526;-84
2023/07/11 09:56:11;;;;;;;5.80;2.10;;;;;;;;;;106504;1280;22568;-81
2023/07/11 09:58:38;;;;;;;7.80;2.40;;;;;;;;;;106625;1281;24536;-83
2023/07/11 10:01:08;;;;;;;8.00;2.60;;;;;;;;;;106567;1279;22538;-81
2023/07/11 10:03:35;;;;;;;10.80;3.40;;;;;;;;;;106658;1260;24196;-79
2023/07/11 10:06:04;;;;;;;10.70;2.80;;;;;;;;;;106825;1278;22578;-81
2023/07/11 10:08:35;;;;;;;7.20;2.50;;;;;;;;;;106707;1278;22523;-83
2023/07/11 10:11:06;;;;;;;7.90;2.40;;;;;;;;;;106746;1278;22530;-79
2023/07/11 10:13:33;;;;;;;8.00;2.50;;;;;;;;;;106465;1263;22550;-80
2023/07/11 10:16:04;;;;;;;6.50;2.50;;;;;;;;;;106520;1279;24259;-79
2023/07/11 10:18:38;;;;;;;7.20;2.70;;;;;;;;;;106702;1279;22653;-81
2023/07/11 10:21:15;;;;;;;8.90;2.40;;;;;;;;;;106661;1279;25317;-81
2023/07/11 10:23:43;;;;;;;7.30;2.20;;;;;;;;;;106826;1267;25429;-78
2023/07/11 10:26:10;;;;;;;7.30;2.40;;;;;;;;;;106573;1278;22657;-80
2023/07/11 10:28:39;;;;;;;6.80;2.30;;;;;;;;;;106977;1278;25563;-85
2023/07/11 10:31:12;;;;;;;7.70;2.20;;;;;;;;;;106662;1278;23863;-82
2023/07/11 10:33:44;;;;;;;7.70;2.60;;;;;;;;;;106870;1260;24428;-85
2023/07/11 10:36:15;;;;;;;8.00;2.30;;;;;;;;;;106910;1278;22527;-80
2023/07/11 10:38:47;;;;;;;6.10;2.40;;;;;;;;;;106841;1278;23869;-82
2023/07/11 10:41:18;;;;;;;7.70;3.10;;;;;;;;;;106893;1277;22524;-81
2023/07/11 10:43:48;;;;;;;5.80;2.30;;;;;;;;;;106919;1254;24180;-83
2023/07/11 10:46:18;;;;;;;6.10;2.60;;;;;;;;;;106964;1276;25535;-82
2023/07/11 10:48:50;;;;;;;6.50;1.80;;;;;;;;;;106944;1276;24173;-85
2023/07/11 10:51:37;;;;;;;5.60;2.10;;;;;;;;;;106958;1276;22521;-86
2023/07/11 10:54:09;;;;;;;5.30;1.90;;;;;;;;;;106912;1260;24270;-82
2023/07/11 10:56:39;;;;;;;5.10;2.00;;;;;;;;;;106872;1277;22536;-81
2023/07/11 10:59:08;;;;;;;5.40;2.30;;;;;;;;;;106897;1277;22636;-80
2023/07/11 11:01:46;;;;;;;6.70;2.50;;;;;;;;;;106847;1277;22735;-84
2023/07/11 11:04:18;;;;;;;6.60;2.30;;;;;;;;;;106979;1257;23898;-81
2023/07/11 11:06:49;;;;;;;9.60;2.60;;;;;;;;;;106928;1276;22546;-84
2023/07/11 11:09:25;;;;;;;7.40;2.30;;;;;;;;;;106940;1276;22627;-84
2023/07/11 11:12:01;;;;;;;7.90;2.30;;;;;;;;;;106983;1276;24212;-79
2023/07/11 11:14:31;;;;;;;4.60;2.10;;;;;;;;;;106965;1267;25357;-80
2023/07/11 11:17:08;;;;;;;4.70;2.00;;;;;;;;;;107215;1274;26477;-83
2023/07/11 11:19:43;;;;;;;5.40;2.00;;;;;;;;;;107147;1274;25241;-82
2023/07/11 11:22:24;;;;;;;7.00;2.50;;;;;;;;;;107271;1274;25268;-83
2023/07/11 11:24:57;;;;;;;4.80;2.30;;;;;;;;;;107040;1257;25240;-83
2023/07/11 11:27:42;;;;;;;8.70;2.60;;;;;;;;;;107283;1275;22958;-80
2023/07/11 11:30:15;;;;;;;6.90;2.20;;;;;;;;;;107053;1275;25329;-83
2023/07/11 11:32:42;;;;;;;7.40;2.30;;;;;;;;;;107169;1275;25275;-79
2023/07/11 11:35:14;;;;;;;7.80;2.50;;;;;;;;;;107173;1251;24250;-81
2023/07/11 11:37:41;;;;;;;6.30;2.20;;;;;;;;;;107219;1274;23888;-80
2023/07/11 11:40:14;;;;;;;6.30;2.10;;;;;;;;;;107238;1274;24186;-84
2023/07/11 11:42:42;;;;;;;5.60;2.40;;;;;;;;;;107207;1274;23291;-83
2023/07/11 11:45:15;;;;;;;5.30;2.20;;;;;;;;;;107025;1257;25347;-83
2023/07/11 11:47:42;;;;;;;6.30;2.20;;;;;;;;;;106977;1275;24234;-80
2023/07/11 11:50:14;;;;;;;6.20;2.40;;;;;;;;;;107050;1275;25339;-82
2023/07/11 11:52:42;;;;;;;7.00;2.40;;;;;;;;;;106972;1275;22523;-82
2023/07/11 11:55:30;;;;;;;4.20;2.00;;;;;;;;;;106943;1258;24263;-80
2023/07/11 11:58:00;;;;;;;5.90;2.30;;;;;;;;;;106959;1274;24211;-80
2023/07/11 12:00:36;;;;;;;6.40;2.10;;;;;;;;;;107082;1274;25489;-85
2023/07/11 12:03:05;;;;;;;6.60;2.10;;;;;;;;;;106960;1274;25460;-79
2023/07/11 12:05:43;;;;;;;6.10;2.20;;;;;;;;;;107133;1256;22555;-82
2023/07/11 12:08:26;;;;;;;5.30;2.10;;;;;;;;;;107105;1275;22520;-78
2023/07/11 12:11:08;;;;;;;5.70;2.30;;;;;;;;;;106743;1275;22527;-82
2023/07/11 12:13:38;;;;;;;5.90;2.50;;;;;;;;;;107069;1269;23932;-81
2023/07/11 12:16:08;;;;;;;6.10;2.40;;;;;;;;;;107138;1258;22522;-82
2023/07/11 12:18:38;;;;;;;8.80;2.30;;;;;;;;;;106935;1274;22530;-79
2023/07/11 12:21:25;;;;;;;6.20;2.30;;;;;;;;;;106799;1275;25331;-79
2023/07/11 12:24:17;;;;;;;4.80;2.00;;;;;;;;;;106936;1275;22537;-80
2023/07/11 12:27:17;;;;;;;4.80;2.00;;;;;;;;;;106987;1275;25385;-81
2023/07/11 12:29:47;;;;;;;5.40;2.30;;;;;;;;;;106885;1275;24653;-80
2023/07/11 12:32:29;;;;;;;7.20;2.10;;;;;;;;;;106972;1276;24252;-79
2023/07/11 12:34:57;;;;;;;4.60;2.30;;;;;;;;;;107094;1269;22621;-78
2023/07/11 12:37:26;;;;;;;6.60;2.10;;;;;;;;;;106923;1253;24183;-79
2023/07/11 12:40:09;;;;;;;4.90;2.00;;;;;;;;;;106952;1272;25226;-79
2023/07/11 12:42:39;;;;;;;5.60;2.30;;;;;;;;;;106890;1275;23835;-81
2023/07/11 12:45:17;;;;;;;9.10;4.00;;;;;;;;;;106875;1275;22527;-81
2023/07/11 12:47:56;;;;;;;6.00;2.30;;;;;;;;;;107097;1257;22583;-80
2023/07/11 12:50:32;;;;;;;7.20;2.30;;;;;;;;;;107209;1275;22524;-79
2023/07/11 12:53:03;;;;;;;5.20;2.10;;;;;;;;;;107804;1274;22524;-78
2023/07/11 12:55:51;;;;;;;5.40;2.40;;;;;;;;;;107148;1252;24059;-78
2023/07/11 12:58:36;;;;;;;6.00;2.20;;;;;;;;;;106908;1275;25402;-82
2023/07/11 13:01:30;;;;;;;5.30;2.20;;;;;;;;;;107075;1275;25353;-78
2023/07/11 13:03:57;;;;;;;4.80;2.10;;;;;;;;;;107175;1275;22510;-82
2023/07/11 13:06:25;;;;;;;6.10;2.20;;;;;;;;;;106882;1259;22640;-78
2023/07/11 13:08:55;;;;;;;6.30;2.40;;;;;;;;;;106893;1275;22532;-79
2023/07/11 13:11:27;;;;;;;7.20;2.50;;;;;;;;;;106891;1275;22523;-78
2023/07/11 13:14:03;;;;;;;7.30;2.00;;;;;;;;;;107004;1275;24342;-80
2023/07/11 13:16:36;;;;;;;7.40;2.30;;;;;;;;;;107036;1256;22530;-86
2023/07/11 13:19:16;;;;;;;9.60;2.30;;;;;;;;;;107170;1275;22523;-82
2023/07/11 13:21:43;;;;;;;7.20;2.40;;;;;;;;;;106950;1275;25622;-81
2023/07/11 13:24:20;;;;;;;8.80;2.30;;;;;;;;;;107245;1272;25319;-82
2023/07/11 13:26:52;;;;;;;6.50;2.50;;;;;;;;;;107024;1259;22601;-80
2023/07/11 13:29:20;;;;;;;7.10;2.20;;;;;;;;;;107062;1275;26493;-85
2023/07/11 13:32:07;;;;;;;7.10;2.40;;;;;;;;;;106947;1275;25207;-80
2023/07/11 13:34:34;;;;;;;7.30;2.50;;;;;;;;;;106970;1275;24241;-79
2023/07/11 13:37:07;;;;;;;9.10;2.30;;;;;;;;;;106874;1274;25236;-80
2023/07/11 13:39:43;;;;;;;6.90;1.90;;;;;;;;;;106901;1275;22693;-84
2023/07/11 13:42:11;;;;;;;7.10;2.30;;;;;;;;;;107189;1269;25328;-78
2023/07/11 13:44:45;;;;;;;6.10;2.30;;;;;;;;;;107086;1274;22922;-83
2023/07/11 13:47:24;;;;;;;8.60;2.20;;;;;;;;;;107030;1260;23143;-80
2023/07/11 13:50:04;;;;;;;7.40;1.80;;;;;;;;;;106937;1275;25359;-78
2023/07/11 13:52:39;;;;;;;7.70;2.40;;;;;;;;;;106923;1275;24675;-83
2023/07/11 13:55:26;;;;;;;7.90;2.10;;;;;;;;;;106904;1275;25281;-80
2023/07/11 13:57:53;;;;;;;5.60;2.20;;;;;;;;;;107119;1255;22536;-80
2023/07/11 14:00:25;;;;;;;8.80;2.60;;;;;;;;;;106908;1275;22543;-80
2023/07/11 14:02:52;;;;;;;5.60;2.50;;;;;;;;;;106938;1274;25552;-81
2023/07/11 14:05:22;;;;;;;7.70;2.00;;;;;;;;;;107025;1270;22518;-83
2023/07/11 14:07:51;;;;;;;6.20;2.60;;;;;;;;;;106960;1259;24206;-80
2023/07/11 14:10:19;;;;;;;5.30;2.30;;;;;;;;;;106845;1252;24271;-84
2023/07/11 14:12:46;;;;;;;5.10;2.50;;;;;;;;;;106905;1275;22514;-81
2023/07/11 14:15:16;;;;;;;5.90;2.20;;;;;;;;;;106925;1275;24266;-78
2023/07/11 14:17:46;;;;;;;6.90;2.50;;;;;;;;;;106946;1256;25356;-79
2023/07/11 14:20:16;;;;;;;5.10;2.10;;;;;;;;;;106979;1272;25341;-82
2023/07/11 14:22:44;;;;;;;4.70;2.40;;;;;;;;;;107153;1275;22527;-79
2023/07/11 14:25:15;;;;;;;6.30;2.50;;;;;;;;;;106978;1275;22608;-81
2023/07/11 14:27:50;;;;;;;5.70;2.30;;;;;;;;;;107091;1272;24183;-86
2023/07/11 14:30:20;;;;;;;7.20;2.30;;;;;;;;;;107134;1274;22629;-83
2023/07/11 14:32:47;;;;;;;8.50;2.70;;;;;;;;;;107125;1274;25470;-83
2023/07/11 14:35:18;;;;;;;6.90;2.40;;;;;;;;;;107122;1275;24280;-79
2023/07/11 14:37:50;;;;;;;7.40;2.50;;;;;;;;;;107045;1253;22497;-85
2023/07/11 14:40:18;;;;;;;6.10;2.50;;;;;;;;;;107037;1275;25268;-79
2023/07/11 14:42:46;;;;;;;7.80;2.60;;;;;;;;;;106958;1275;22554;-79
2023/07/11 14:45:14;;;;;;;5.40;2.30;;;;;;;;;;106933;1272;22716;-79
2023/07/11 14:47:41;;;;;;;5.00;2.30;;;;;;;;;;106946;1275;24318;-79
2023/07/11 14:50:13;;;;;;;7.50;2.30;;;;;;;;;;107272;1257;24602;-84
2023/07/11 14:52:46;;;;;;;7.70;2.70;;;;;;;;;;107016;1275;25288;-80
2023/07/11 14:55:14;;;;;;;7.50;3.10;;;;;;;;;;107086;1275;22780;-80
2023/07/11 14:57:42;;;;;;;8.70;2.80;;;;;;;;;;107074;1275;22529;-83
2023/07/11 15:00:17;;;;;;;10.80;3.60;;;;;;;;;;106948;1274;25326;-83
2023/07/11 15:02:44;;;;;;;8.30;2.40;;;;;;;;;;107073;1275;21748;-79
2023/07/11 15:05:20;;;;;;;7.30;2.70;;;;;;;;;;107158;1275;22544;-79